Portada
METAR-TAF:

METAR-TAF

Aeroports :

Emmen, Suïssa

latitud: 47-05-32N, longitud: 8-18-16E, altitud: 426 m

Observació

L'informe es va fer fa 34 minuts, a les 22:50 UTC
Vent 2 kt amb direcció variable
Temperatura 0°C
Humitat 93%
Pressió 1013 hPa
Visibilitat: 9000 m
Escasses núvols a una alçada de 1300 ft
Núvols disperses a una alçada de 3100 ft
Cel ennuvolat a una alçada de 4800 ft
xàfecs de neu

METAR: LSME 262250Z AUTO VRB02KT 9000NDV -SHSN FEW013 SCT031 BKN048 00/M01 Q1013 RMK

Hora: 00:24 (23:24 UTC)


TAF: manca

Observacions i pronòstics meteorològics de més de 4000 aeroports (METAR i TAF).

Les estacions disponibles són els punts grocs i vermells al mapa.

Posi el ratolí al punt desitjat per veure el nom de l'estació.

Feu clic per veure les observacions i els pronòstics meteorològics.

Per canviar el mapa: feu clic els botons verds amb una creu de color negre per apropar; al botó verd amb un guió per allunyar la imatge; o en les fletxes verdes per a mapes adjacents.


METAR-TAF: